Time;durP1;ratioP1;P1;durP2;ratioP2;P2;SDS_P1;SDS_P2;PMS_P1;PMS_P2;Temp;Humidity;BMP_temperature;BMP_pressure;BME280_temperature;BME280_humidity;BME280_pressure;Samples;Min_cycle;Max_cycle;Signal;HPM_P1;HPM_P2
2023/08/24 01:50:58;;;;;;;7.40;4.70;;;;;;;19.91;100.00;100804.98;106320;1251;61786;-87
2023/08/24 01:53:47;;;;;;;6.50;5.30;;;;;;;19.60;100.00;100805.77;106218;1256;61186;-88
2023/08/24 01:56:36;;;;;;;6.90;4.70;;;;;;;19.51;100.00;100801.05;106282;1256;76974;-87
2023/08/24 01:59:25;;;;;;;6.00;4.60;;;;;;;19.66;100.00;100804.96;106285;1251;72396;-87
2023/08/24 02:02:13;;;;;;;5.70;4.40;;;;;;;19.50;100.00;100806.58;106420;1257;73593;-86
2023/08/24 02:05:03;;;;;;;8.40;4.10;;;;;;;19.42;100.00;100810.44;106316;1252;63210;-87
2023/08/24 02:07:51;;;;;;;5.30;4.20;;;;;;;19.34;100.00;100813.48;106233;1252;62450;-86
2023/08/24 02:10:40;;;;;;;7.70;4.80;;;;;;;19.39;100.00;100811.56;106386;1251;73462;-86
2023/08/24 02:13:29;;;;;;;9.30;4.60;;;;;;;19.40;100.00;100811.76;106327;1256;71462;-87
2023/08/24 02:16:18;;;;;;;10.70;5.60;;;;;;;19.43;100.00;100815.84;106148;1257;214319;-87
2023/08/24 02:19:07;;;;;;;7.40;4.50;;;;;;;19.36;100.00;100815.14;106354;1253;62143;-87
2023/08/24 02:21:55;;;;;;;7.10;4.30;;;;;;;19.43;100.00;100819.43;106499;1251;62903;-88
2023/08/24 02:24:44;;;;;;;5.20;4.10;;;;;;;19.54;100.00;100824.16;106360;1251;77119;-85
2023/08/24 02:27:33;;;;;;;5.30;4.10;;;;;;;19.59;100.00;100821.13;106342;1256;69514;-87
2023/08/24 02:30:21;;;;;;;8.40;3.70;;;;;;;19.55;100.00;100828.40;106374;1252;75059;-86
2023/08/24 02:33:10;;;;;;;6.30;4.30;;;;;;;19.52;100.00;100830.48;106216;1259;61570;-87
2023/08/24 02:35:59;;;;;;;7.60;4.50;;;;;;;19.66;100.00;100828.18;106204;1259;62249;-88
2023/08/24 02:38:48;;;;;;;5.70;4.20;;;;;;;19.62;100.00;100829.32;106571;1257;74638;-87
2023/08/24 02:41:36;;;;;;;6.50;3.30;;;;;;;19.51;100.00;100831.57;106545;1256;70442;-87
2023/08/24 02:44:26;;;;;;;5.00;3.80;;;;;;;19.47;100.00;100826.86;106373;1254;70663;-88
2023/08/24 02:47:15;;;;;;;5.20;3.80;;;;;;;19.38;100.00;100827.36;106352;1256;61845;-86
2023/08/24 02:50:06;;;;;;;6.80;4.00;;;;;;;19.50;100.00;100826.36;106225;1252;62489;-88
2023/08/24 02:52:57;;;;;;;6.00;3.90;;;;;;;19.35;100.00;100822.73;106453;1251;77927;-86
2023/08/24 02:55:46;;;;;;;5.90;3.80;;;;;;;19.22;100.00;100823.36;106322;1251;70186;-87
2023/08/24 02:58:35;;;;;;;7.30;4.10;;;;;;;19.27;100.00;100818.95;106153;1254;75620;-86
2023/08/24 03:01:26;;;;;;;4.80;3.90;;;;;;;19.11;100.00;100818.13;106275;1254;64051;-86
2023/08/24 03:04:15;;;;;;;6.00;4.00;;;;;;;19.12;100.00;100821.01;106372;1253;61126;-88
2023/08/24 03:07:07;;;;;;;6.10;4.20;;;;;;;19.12;100.00;100823.80;106488;1256;75880;-86
2023/08/24 03:09:56;;;;;;;7.00;4.10;;;;;;;19.13;100.00;100825.73;106552;1253;67990;-87
2023/08/24 03:12:45;;;;;;;8.20;4.90;;;;;;;19.07;100.00;100825.59;106381;1254;73972;-86
2023/08/24 03:15:35;;;;;;;6.90;4.20;;;;;;;19.03;100.00;100826.16;106268;1256;63838;-88
2023/08/24 03:18:26;;;;;;;6.50;4.60;;;;;;;18.99;100.00;100830.23;106220;1252;61179;-86
2023/08/24 03:21:15;;;;;;;8.40;4.70;;;;;;;18.95;100.00;100828.09;106209;1254;74708;-88
2023/08/24 03:24:04;;;;;;;5.20;4.30;;;;;;;18.85;100.00;100832.40;106328;1254;71558;-86
2023/08/24 03:26:53;;;;;;;5.00;4.20;;;;;;;18.94;100.00;100836.77;106187;1254;71497;-86
2023/08/24 03:29:42;;;;;;;7.40;5.00;;;;;;;19.00;100.00;100837.08;106222;1254;62198;-88
2023/08/24 03:32:31;;;;;;;7.00;5.00;;;;;;;19.08;100.00;100838.08;106253;1254;59983;-86
2023/08/24 03:35:20;;;;;;;6.70;4.50;;;;;;;19.19;100.00;100837.93;106153;1254;76822;-85
2023/08/24 03:38:09;;;;;;;7.10;4.80;;;;;;;19.18;100.00;100841.36;106276;1257;67933;-86
2023/08/24 03:41:02;;;;;;;6.40;4.70;;;;;;;19.24;100.00;100846.31;106182;1254;73646;-86
2023/08/24 03:43:51;;;;;;;8.10;5.10;;;;;;;19.20;100.00;100848.75;106393;1254;62159;-89
2023/08/24 03:46:40;;;;;;;6.80;4.70;;;;;;;19.21;100.00;100848.61;106260;1257;61332;-88
2023/08/24 03:49:29;;;;;;;6.00;4.10;;;;;;;19.43;100.00;100853.86;106127;1254;76808;-88
2023/08/24 03:52:18;;;;;;;8.20;5.20;;;;;;;19.51;100.00;100859.67;106326;1254;72060;-88
2023/08/24 03:55:07;;;;;;;6.10;4.90;;;;;;;19.63;100.00;100856.46;106069;1254;74545;-86
2023/08/24 03:57:56;;;;;;;7.20;5.20;;;;;;;19.82;100.00;100857.69;106240;1259;62998;-87
2023/08/24 04:00:46;;;;;;;8.20;6.00;;;;;;;19.95;100.00;100856.88;106311;1252;62294;-88
2023/08/24 04:03:35;;;;;;;6.60;4.90;;;;;;;20.15;100.00;100849.84;106143;1259;73390;-85
2023/08/24 04:06:24;;;;;;;8.30;4.80;;;;;;;20.36;100.00;100852.52;106334;1257;67993;-87
2023/08/24 04:09:13;;;;;;;7.40;5.10;;;;;;;20.52;100.00;100851.83;106221;1258;75252;-85
2023/08/24 04:12:02;;;;;;;6.00;4.90;;;;;;;20.77;100.00;100852.05;106180;1256;61269;-85
2023/08/24 04:14:52;;;;;;;5.40;4.10;;;;;;;20.92;100.00;100852.48;106379;1251;61796;-84
2023/08/24 04:17:41;;;;;;;5.80;4.30;;;;;;;21.18;100.00;100849.13;106158;1258;76712;-88
2023/08/24 04:20:32;;;;;;;10.10;5.10;;;;;;;21.30;100.00;100850.05;106365;1251;67855;-87
2023/08/24 04:23:25;;;;;;;12.20;6.10;;;;;;;21.50;100.00;100852.84;106226;1253;76395;-85
2023/08/24 04:26:14;;;;;;;10.40;5.50;;;;;;;21.75;100.00;100855.77;106225;1253;62475;-84
2023/08/24 04:29:03;;;;;;;10.50;5.10;;;;;;;21.97;100.00;100857.08;106165;1253;61257;-85
2023/08/24 04:31:51;;;;;;;10.20;5.30;;;;;;;22.21;100.00;100860.20;106169;1254;77942;-85
2023/08/24 04:34:40;;;;;;;8.10;5.00;;;;;;;22.30;100.00;100861.83;106243;1258;68395;-87
2023/08/24 04:37:29;;;;;;;10.30;4.70;;;;;;;22.45;100.00;100861.72;106310;1251;76159;-89
2023/08/24 04:40:17;;;;;;;6.20;4.40;;;;;;;22.60;100.00;100857.83;106344;1253;61400;-87
2023/08/24 04:43:06;;;;;;;5.40;4.00;;;;;;;22.75;100.00;100855.42;106265;1258;62397;-87
2023/08/24 04:45:55;;;;;;;8.40;4.60;;;;;;;22.99;100.00;100855.73;106361;1258;76791;-85
2023/08/24 04:48:43;;;;;;;5.20;3.70;;;;;;;23.20;100.00;100849.00;106227;1257;71209;-86
2023/08/24 04:51:32;;;;;;;5.50;4.00;;;;;;;23.51;100.00;100853.77;106348;1257;75614;-87
2023/08/24 04:54:21;;;;;;;6.50;4.60;;;;;;;23.56;100.00;100858.11;106259;1251;62079;-86
2023/08/24 04:57:10;;;;;;;6.30;4.50;;;;;;;23.77;100.00;100849.67;106385;1256;62388;-86
2023/08/24 04:59:59;;;;;;;6.40;4.90;;;;;;;23.88;100.00;100850.11;106277;1254;76776;-88
2023/08/24 05:02:47;;;;;;;7.30;5.10;;;;;;;24.13;100.00;100854.17;106350;1251;70300;-86
2023/08/24 05:05:36;;;;;;;13.50;5.30;;;;;;;24.35;100.00;100858.05;106331;1253;75328;-87
2023/08/24 05:08:25;;;;;;;19.50;5.50;;;;;;;24.49;100.00;100856.38;106302;1253;64545;-87
2023/08/24 05:11:18;;;;;;;13.10;5.50;;;;;;;24.63;100.00;100859.29;106157;1254;61309;-88
2023/08/24 05:14:06;;;;;;;11.20;6.10;;;;;;;24.89;100.00;100855.99;106331;1252;76893;-87
2023/08/24 05:16:55;;;;;;;11.10;5.90;;;;;;;25.19;100.00;100857.50;106326;1256;71183;-87
2023/08/24 05:19:44;;;;;;;9.60;5.20;;;;;;;25.44;100.00;100857.44;106428;1251;74967;-87
2023/08/24 05:22:33;;;;;;;9.60;5.30;;;;;;;25.80;100.00;100855.61;106413;1253;61303;-87
2023/08/24 05:25:22;;;;;;;6.60;4.40;;;;;;;25.97;100.00;100858.33;106301;1253;61166;-87
2023/08/24 05:28:11;;;;;;;8.00;4.80;;;;;;;26.21;100.00;100856.21;106491;1253;67057;-87
2023/08/24 05:31:00;;;;;;;7.50;4.10;;;;;;;26.40;100.00;100854.36;106408;1256;62071;-87
2023/08/24 05:33:48;;;;;;;7.40;3.80;;;;;;;26.64;100.00;100853.67;106263;1251;65223;-87
2023/08/24 05:36:37;;;;;;;5.30;3.30;;;;;;;26.81;100.00;100854.06;106432;1256;61144;-88
2023/08/24 05:39:26;;;;;;;6.20;3.20;;;;;;;27.08;96.21;100854.31;106313;1257;61228;-90
2023/08/24 05:42:15;;;;;;;6.90;3.10;;;;;;;27.22;89.69;100855.23;106279;1254;68428;-88
2023/08/24 05:45:04;;;;;;;7.00;3.00;;;;;;;27.33;85.36;100850.87;106541;1252;61970;-89
2023/08/24 05:47:53;;;;;;;6.00;3.20;;;;;;;27.48;80.48;100849.09;106330;1256;65201;-89
2023/08/24 05:50:43;;;;;;;4.60;2.80;;;;;;;27.61;79.58;100846.27;106371;1257;61387;-89
2023/08/24 05:53:31;;;;;;;4.30;3.00;;;;;;;27.78;78.89;100847.88;106446;1254;61450;-89
2023/08/24 05:56:20;;;;;;;4.00;2.70;;;;;;;27.97;76.59;100848.36;106455;1251;65541;-89
2023/08/24 05:59:09;;;;;;;5.90;2.80;;;;;;;28.01;75.08;100845.67;106549;1251;61855;-89
2023/08/24 06:01:58;;;;;;;8.40;3.10;;;;;;;28.10;73.47;100842.21;106463;1254;63835;-89
2023/08/24 06:04:46;;;;;;;6.60;2.30;;;;;;;28.39;69.91;100837.36;106653;1256;61282;-90
2023/08/24 06:07:36;;;;;;;3.40;2.20;;;;;;;28.61;66.15;100838.30;106577;1253;61353;-90
2023/08/24 06:10:26;;;;;;;3.80;2.10;;;;;;;28.80;61.47;100833.42;106420;1252;66066;-88
2023/08/24 06:13:15;;;;;;;4.80;2.30;;;;;;;28.93;57.23;100827.94;106542;1253;61279;-87
2023/08/24 06:16:04;;;;;;;4.80;2.50;;;;;;;28.99;57.12;100827.88;106388;1253;65875;-89
2023/08/24 06:18:53;;;;;;;8.90;2.00;;;;;;;29.12;56.88;100828.98;106274;1260;61318;-89
2023/08/24 06:21:42;;;;;;;5.20;2.50;;;;;;;29.11;57.38;100823.84;106390;1257;60056;-89
2023/08/24 06:24:31;;;;;;;4.10;2.20;;;;;;;29.13;55.94;100826.34;106396;1252;68308;-89
2023/08/24 06:27:20;;;;;;;2.90;1.90;;;;;;;29.29;54.36;100828.80;106428;1258;61891;-89
2023/08/24 06:30:09;;;;;;;5.70;1.80;;;;;;;29.47;54.70;100831.81;106382;1256;63824;-89
2023/08/24 06:32:58;;;;;;;3.20;1.60;;;;;;;29.65;52.71;100836.49;106284;1254;61692;-88
2023/08/24 06:35:47;;;;;;;3.40;1.70;;;;;;;29.86;52.41;100837.01;106344;1252;61275;-88
2023/08/24 06:38:36;;;;;;;4.10;1.30;;;;;;;30.05;50.82;100839.73;106326;1254;68454;-89
2023/08/24 06:41:24;;;;;;;2.30;1.40;;;;;;;30.26;47.16;100837.63;106324;1260;62615;-88
2023/08/24 06:44:13;;;;;;;2.40;1.30;;;;;;;30.29;47.21;100839.64;106315;1257;63848;-88
2023/08/24 06:47:03;;;;;;;3.00;1.30;;;;;;;30.36;47.23;100845.84;106351;1260;61236;-88
2023/08/24 06:49:53;;;;;;;2.80;1.00;;;;;;;30.48;44.99;100845.66;106233;1255;61302;-88
2023/08/24 06:52:42;;;;;;;2.70;1.20;;;;;;;30.62;42.76;100843.05;106437;1253;67174;-89
2023/08/24 06:55:31;;;;;;;3.00;1.00;;;;;;;30.72;41.63;100842.28;106468;1254;61330;-86
2023/08/24 06:58:20;;;;;;;3.30;1.30;;;;;;;30.79;39.05;100845.97;106492;1254;63840;-87
2023/08/24 07:01:09;;;;;;;2.10;1.10;;;;;;;30.77;39.90;100846.77;106442;1253;61314;-90
2023/08/24 07:03:58;;;;;;;4.80;1.00;;;;;;;30.88;40.11;100848.13;106336;1259;60228;-89
2023/08/24 07:06:47;;;;;;;2.80;1.00;;;;;;;31.03;39.42;100850.96;106477;1259;68239;-87
2023/08/24 07:09:36;;;;;;;2.00;1.00;;;;;;;31.20;39.07;100858.07;106616;1256;61778;-89
2023/08/24 07:12:24;;;;;;;2.60;0.80;;;;;;;31.34;38.76;100859.19;106676;1266;65158;-88
2023/08/24 07:15:13;;;;;;;1.50;0.80;;;;;;;31.46;37.85;100859.48;106560;1257;61284;-88
2023/08/24 07:18:02;;;;;;;1.40;1.20;;;;;;;31.54;38.12;100858.93;106602;1252;61099;-89
2023/08/24 07:20:51;;;;;;;4.70;1.10;;;;;;;31.60;36.43;100859.78;106410;1260;68534;-89
2023/08/24 07:23:40;;;;;;;1.60;1.10;;;;;;;31.57;36.86;100859.23;106609;1251;62271;-88
2023/08/24 07:26:30;;;;;;;1.40;1.10;;;;;;;31.60;36.76;100862.45;106501;1257;65223;-87
2023/08/24 07:29:20;;;;;;;1.70;1.20;;;;;;;31.64;36.73;100857.89;106458;1257;61240;-90
2023/08/24 07:32:08;;;;;;;2.60;1.20;;;;;;;31.76;36.38;100862.90;106644;1251;61275;-88
2023/08/24 07:34:59;;;;;;;3.90;1.50;;;;;;;31.71;34.93;100865.11;106631;1251;67320;-87
2023/08/24 07:37:48;;;;;;;3.00;1.60;;;;;;;31.66;36.16;100864.90;106526;1256;61673;-88
2023/08/24 07:40:37;;;;;;;3.70;1.20;;;;;;;31.74;37.67;100865.64;106539;1251;63864;-89
2023/08/24 07:43:26;;;;;;;2.00;1.00;;;;;;;31.87;37.88;100863.70;106464;1251;61100;-88
2023/08/24 07:46:15;;;;;;;2.00;1.50;;;;;;;32.08;36.80;100859.81;106619;1256;61282;-88
2023/08/24 07:49:03;;;;;;;2.10;1.40;;;;;;;32.29;36.99;100856.48;106698;1257;65894;-87
2023/08/24 07:51:52;;;;;;;4.00;1.40;;;;;;;32.43;37.38;100856.01;106648;1257;61425;-87
2023/08/24 07:54:42;;;;;;;2.40;1.40;;;;;;;32.44;36.78;100851.31;106626;1257;66274;-88
2023/08/24 07:57:31;;;;;;;2.00;1.30;;;;;;;32.55;36.17;100850.17;106640;1250;61345;-88
2023/08/24 08:00:20;;;;;;;2.40;1.40;;;;;;;32.64;35.77;100846.60;106590;1257;61115;-87
2023/08/24 08:03:08;;;;;;;2.40;1.40;;;;;;;32.67;36.61;100851.58;106597;1251;66583;-86
2023/08/24 08:05:58;;;;;;;2.50;1.50;;;;;;;32.80;36.20;100852.13;106734;1250;62539;-87
2023/08/24 08:08:47;;;;;;;1.60;1.50;;;;;;;32.98;35.68;100851.03;106601;1256;65163;-86
2023/08/24 08:11:36;;;;;;;5.60;1.60;;;;;;;33.13;34.25;100851.67;106623;1252;61186;-88
2023/08/24 08:14:26;;;;;;;4.90;1.60;;;;;;;33.12;33.11;100856.07;106651;1256;61291;-88
2023/08/24 08:17:14;;;;;;;2.50;1.50;;;;;;;33.13;33.76;100857.23;106450;1261;76873;-89
2023/08/24 08:20:04;;;;;;;3.40;1.50;;;;;;;33.11;33.47;100857.04;106665;1251;62070;-87
2023/08/24 08:22:53;;;;;;;4.10;1.60;;;;;;;32.95;33.50;100854.39;106568;1257;66282;-88
2023/08/24 08:25:42;;;;;;;3.00;1.60;;;;;;;32.79;33.57;100853.61;106534;1253;61343;-88
2023/08/24 08:28:33;;;;;;;2.60;1.70;;;;;;;32.69;34.06;100851.79;106747;1253;61136;-88
2023/08/24 08:31:22;;;;;;;4.20;1.90;;;;;;;32.73;35.46;100849.96;106444;1257;66338;-88
2023/08/24 08:34:11;;;;;;;2.70;1.50;;;;;;;32.89;35.45;100845.08;106508;1257;62281;-88
2023/08/24 08:36:59;;;;;;;4.50;1.80;;;;;;;32.92;33.83;100847.14;106590;1257;63829;-88
2023/08/24 08:39:48;;;;;;;2.60;1.70;;;;;;;32.93;33.41;100847.05;106591;1252;61341;-88
2023/08/24 08:42:37;;;;;;;3.20;1.50;;;;;;;33.06;34.05;100845.21;106890;1251;61244;-88
2023/08/24 08:45:26;;;;;;;3.50;1.70;;;;;;;33.10;34.42;100842.65;106861;1251;66685;-87
2023/08/24 08:48:15;;;;;;;3.60;1.70;;;;;;;33.11;34.41;100843.27;106743;1255;61228;-87
2023/08/24 08:51:04;;;;;;;3.10;1.50;;;;;;;33.14;33.61;100845.02;106764;1257;64647;-88
2023/08/24 08:53:53;;;;;;;4.90;1.90;;;;;;;32.97;33.83;100839.16;106450;1254;61436;-88
2023/08/24 08:56:42;;;;;;;4.50;2.10;;;;;;;32.77;34.06;100836.34;106668;1256;59986;-89
2023/08/24 08:59:31;;;;;;;3.20;1.50;;;;;;;32.75;34.60;100834.50;106683;1251;65746;-88
2023/08/24 09:02:20;;;;;;;2.60;1.60;;;;;;;32.89;35.33;100830.61;106717;1256;62142;-87
2023/08/24 09:05:09;;;;;;;2.50;1.60;;;;;;;33.06;35.30;100826.84;106731;1251;63801;-88
2023/08/24 09:07:59;;;;;;;3.30;1.70;;;;;;;33.19;34.49;100832.34;106438;1251;61157;-88
2023/08/24 09:10:48;;;;;;;4.80;1.70;;;;;;;33.28;33.84;100828.09;106496;1251;61186;-87
2023/08/24 09:13:37;;;;;;;2.80;1.40;;;;;;;33.40;33.66;100828.40;106301;1251;68044;-86
2023/08/24 09:16:29;;;;;;;4.70;1.90;;;;;;;33.50;33.37;100826.05;106582;1251;61339;-87
2023/08/24 09:19:18;;;;;;;;;;;;;;;33.61;32.42;100828.34;106512;1251;63759;-88
2023/08/24 09:22:07;;;;;;;3.50;1.60;;;;;;;33.56;32.74;100824.36;106381;1251;61275;-86
2023/08/24 09:24:56;;;;;;;2.20;1.80;;;;;;;33.58;32.54;100821.27;106548;1251;61426;-86
2023/08/24 09:27:45;;;;;;;3.90;1.50;;;;;;;33.60;31.72;100819.20;106403;1251;64769;-88
2023/08/24 09:30:37;;;;;;;4.60;1.50;;;;;;;33.57;31.74;100818.59;106637;1251;61442;-87
2023/08/24 09:33:26;;;;;;;5.20;1.50;;;;;;;33.58;32.29;100815.81;106699;1251;66681;-89
2023/08/24 09:36:15;;;;;;;2.90;1.40;;;;;;;33.59;31.87;100820.09;106679;1251;61384;-90
2023/08/24 09:39:04;;;;;;;2.50;1.40;;;;;;;33.68;30.86;100816.16;106462;1256;61248;-88
2023/08/24 09:41:53;;;;;;;3.60;1.50;;;;;;;33.85;31.12;100814.16;106592;1256;77115;-87
2023/08/24 09:44:48;;;;;;;3.40;1.70;;;;;;;33.89;31.15;100813.38;106688;1254;62121;-89
2023/08/24 09:47:37;;;;;;;3.90;1.60;;;;;;;34.05;30.31;100814.39;106632;1251;65344;-89
2023/08/24 09:50:26;;;;;;;3.40;1.40;;;;;;;34.24;30.10;100811.87;106661;1251;61236;-89
2023/08/24 09:53:20;;;;;;;3.90;1.50;;;;;;;33.81;31.41;100812.95;106500;1251;61352;-87
2023/08/24 09:56:08;;;;;;;2.90;1.50;;;;;;;33.68;31.85;100806.69;106768;1251;67412;-87
2023/08/24 09:58:57;;;;;;;3.50;1.70;;;;;;;33.69;31.65;100803.51;106757;1251;61294;-88
2023/08/24 10:01:47;;;;;;;4.80;1.50;;;;;;;33.71;31.35;100799.91;106681;1257;65097;-87
2023/08/24 10:04:35;;;;;;;3.20;1.30;;;;;;;33.67;31.44;100799.34;106808;1251;61173;-86
2023/08/24 10:07:24;;;;;;;4.40;1.30;;;;;;;33.48;31.24;100797.60;106422;1257;61266;-87
2023/08/24 10:10:13;;;;;;;4.20;1.20;;;;;;;33.40;30.93;100798.52;106442;1250;64665;-89
2023/08/24 10:13:08;;;;;;;3.00;1.40;;;;;;;33.37;31.17;100799.70;106313;1251;62305;-90
2023/08/24 10:15:57;;;;;;;5.10;2.10;;;;;;;33.38;31.23;100796.29;106493;1257;65328;-87
2023/08/24 10:18:46;;;;;;;4.10;1.10;;;;;;;33.39;31.40;100785.52;106381;1251;61208;-87
2023/08/24 10:21:36;;;;;;;2.90;1.20;;;;;;;33.45;31.42;100789.23;106361;1251;61365;-88
2023/08/24 10:24:25;;;;;;;6.10;1.30;;;;;;;33.58;30.90;100791.39;106495;1250;65674;-87
2023/08/24 10:27:14;;;;;;;2.10;1.40;;;;;;;33.56;30.83;100790.92;106356;1257;61607;-91
2023/08/24 10:30:03;;;;;;;2.10;1.40;;;;;;;33.51;31.81;100786.13;106550;1251;63824;-88
2023/08/24 10:32:53;;;;;;;2.10;1.30;;;;;;;33.59;31.41;100786.02;106452;1254;61356;-88
2023/08/24 10:35:43;;;;;;;3.10;1.40;;;;;;;33.61;31.44;100783.89;106733;1251;61197;-90
2023/08/24 10:38:35;;;;;;;2.70;1.50;;;;;;;33.54;31.34;100782.39;106765;1251;66745;-87
2023/08/24 10:41:27;;;;;;;3.00;1.10;;;;;;;33.62;31.55;100780.71;106847;1251;61240;-87
2023/08/24 10:44:24;;;;;;;;;;;;;;;33.84;30.63;100781.55;106824;1251;65066;-86
2023/08/24 10:47:16;;;;;;;2.60;1.50;;;;;;;34.18;30.22;100778.61;106533;1256;61346;-89
2023/08/24 10:50:05;;;;;;;3.80;1.80;;;;;;;34.40;29.34;100777.94;106723;1257;61320;-89
2023/08/24 10:52:54;;;;;;;2.70;1.40;;;;;;;34.40;28.74;100777.95;106606;1256;65813;-90
2023/08/24 10:55:43;;;;;;;3.20;1.20;;;;;;;34.37;29.37;100778.08;106435;1257;61346;-89
2023/08/24 10:58:33;;;;;;;4.20;1.70;;;;;;;34.46;29.40;100782.03;106431;1253;66328;-88
2023/08/24 11:01:23;;;;;;;1.60;1.00;;;;;;;34.58;28.80;100778.06;106595;1253;61406;-87
2023/08/24 11:04:12;;;;;;;3.60;1.00;;;;;;;34.83;27.63;100771.70;106492;1251;61364;-88
2023/08/24 11:07:04;;;;;;;2.30;1.00;;;;;;;34.90;26.80;100770.27;106610;1251;67184;-88
2023/08/24 11:09:52;;;;;;;5.30;1.50;;;;;;;35.03;27.40;100769.95;106669;1251;61368;-88
2023/08/24 11:13:04;;;;;;;4.70;1.30;;;;;;;35.02;26.91;100763.01;106559;1257;64267;-89
2023/08/24 11:15:58;;;;;;;1.40;1.10;;;;;;;35.05;26.69;100763.09;106687;1251;61350;-88
2023/08/24 11:18:47;;;;;;;2.60;1.30;;;;;;;35.12;26.34;100758.27;106758;1251;61256;-89
2023/08/24 11:21:36;;;;;;;2.80;1.20;;;;;;;35.17;26.91;100760.52;106626;1257;65750;-87
2023/08/24 11:24:25;;;;;;;3.10;1.60;;;;;;;35.24;27.25;100755.64;106457;1251;61331;-90
2023/08/24 11:27:16;;;;;;;3.50;1.30;;;;;;;35.36;26.74;100746.16;106708;1251;65689;-88
2023/08/24 11:30:06;;;;;;;1.50;1.20;;;;;;;35.54;26.21;100746.37;106704;1254;61342;-89
2023/08/24 11:32:55;;;;;;;3.50;1.30;;;;;;;35.57;27.15;100744.27;106611;1251;61957;-89
2023/08/24 11:35:54;;;;;;;2.40;1.40;;;;;;;35.42;27.43;100739.11;106766;1256;67677;-89
2023/08/24 11:38:47;;;;;;;1.50;1.30;;;;;;;35.39;27.78;100738.67;107067;1256;62243;-89
2023/08/24 11:42:10;;;;;;;2.70;1.10;;;;;;;35.63;27.59;100738.92;106912;1251;63688;-88
2023/08/24 11:48:59;;;;;;;2.90;1.40;;;;;;;35.90;27.11;100739.11;106601;1257;61249;-90
2023/08/24 11:52:32;;;;;;;1.70;1.20;;;;;;;35.83;27.03;100738.64;108678;1251;67978;-92
2023/08/24 11:55:53;;;;;;;4.60;1.40;;;;;;;35.68;26.97;100737.42;106395;1257;61235;-89
2023/08/24 11:59:11;;;;;;;3.60;1.20;;;;;;;35.50;27.15;100734.45;106307;1251;63717;-89
2023/08/24 12:02:17;;;;;;;3.70;1.50;;;;;;;35.60;27.79;100732.52;106429;1254;61147;-91
2023/08/24 12:05:20;;;;;;;5.00;1.30;;;;;;;35.83;27.48;100732.05;106594;1256;61244;-88
2023/08/24 12:08:11;;;;;;;3.60;1.30;;;;;;;36.08;26.91;100727.90;106580;1251;66788;-89
2023/08/24 12:10:59;;;;;;;3.40;1.90;;;;;;;36.24;26.64;100725.85;106409;1256;61260;-89
2023/08/24 12:13:49;;;;;;;3.50;1.30;;;;;;;36.27;26.54;100723.96;106467;1254;63792;-88
2023/08/24 12:16:41;;;;;;;2.50;1.20;;;;;;;36.51;26.11;100717.90;106347;1257;61400;-90
2023/08/24 12:19:29;;;;;;;2.50;1.30;;;;;;;36.83;24.81;100715.95;106468;1255;59453;-89
2023/08/24 12:22:19;;;;;;;2.20;1.50;;;;;;;36.76;24.78;100712.11;106600;1256;66335;-92
2023/08/24 12:25:08;;;;;;;3.50;1.30;;;;;;;36.81;24.89;100715.95;106389;1251;62026;-89
2023/08/24 12:28:10;;;;;;;3.30;1.30;;;;;;;36.67;24.69;100715.40;106510;1251;63953;-89
2023/08/24 17:48:34;;;;;;;7.10;2.90;;;;;;;25.22;78.69;100687.16;106683;1251;62425;-88
2023/08/24 17:51:23;;;;;;;4.00;2.80;;;;;;;25.16;79.96;100684.39;106358;1251;76822;-89
2023/08/24 17:54:12;;;;;;;9.70;3.00;;;;;;;25.10;80.33;100686.04;106601;1254;61390;-87
2023/08/24 17:57:01;;;;;;;5.40;2.40;;;;;;;25.00;79.97;100686.10;106659;1256;75178;-86
2023/08/24 17:59:50;;;;;;;7.90;4.20;;;;;;;24.88;80.49;100688.59;106444;1251;63948;-88
2023/08/24 18:02:41;;;;;;;9.10;5.20;;;;;;;24.75;82.50;100688.27;106370;1251;61187;-89
2023/08/24 18:05:32;;;;;;;9.50;4.70;;;;;;;24.68;83.79;100688.95;106430;1251;76601;-90
2023/08/24 18:08:20;;;;;;;8.00;3.90;;;;;;;24.59;84.76;100688.52;106315;1257;70382;-89
2023/08/24 18:11:09;;;;;;;7.20;3.40;;;;;;;24.55;84.92;100691.65;106246;1253;71827;-88
2023/08/24 18:13:59;;;;;;;10.80;3.60;;;;;;;24.37;85.48;100682.72;106379;1252;61699;-87
2023/08/24 18:16:48;;;;;;;8.50;3.70;;;;;;;24.34;85.03;100681.13;106450;1254;61821;-86
2023/08/24 18:19:36;;;;;;;8.00;3.80;;;;;;;24.24;85.77;100685.80;106482;1250;75950;-87
2023/08/24 18:22:28;;;;;;;7.60;3.70;;;;;;;24.09;87.11;100687.94;106727;1256;69624;-87
2023/08/24 18:25:17;;;;;;;6.20;3.80;;;;;;;23.91;88.97;100686.61;106536;1256;73201;-89
2023/08/24 18:28:06;;;;;;;12.50;4.30;;;;;;;23.87;89.74;100686.73;106400;1257;61295;-89
2023/08/24 18:30:58;;;;;;;7.60;4.10;;;;;;;23.79;90.73;100688.23;106522;1250;61898;-89
2023/08/24 18:33:47;;;;;;;9.40;4.10;;;;;;;23.64;90.78;100690.41;106661;1251;76628;-87
2023/08/24 18:36:36;;;;;;;10.60;4.00;;;;;;;23.50;92.54;100692.30;106578;1251;68889;-89
2023/08/24 18:39:27;;;;;;;10.00;3.90;;;;;;;23.35;94.23;100692.90;106652;1251;74855;-86
2023/08/24 18:42:16;;;;;;;5.30;3.50;;;;;;;23.27;94.53;100695.23;106508;1257;61290;-87
2023/08/24 18:45:05;;;;;;;6.60;2.60;;;;;;;23.20;95.16;100700.95;106548;1251;62116;-88
2023/08/24 18:47:53;;;;;;;3.80;2.80;;;;;;;23.03;97.82;100698.30;106543;1251;76564;-86
2023/08/24 18:50:43;;;;;;;5.20;3.00;;;;;;;22.98;99.53;100694.95;106524;1251;71026;-89
2023/08/24 18:53:31;;;;;;;4.50;3.30;;;;;;;22.98;100.00;100698.40;106723;1251;73280;-90
2023/08/24 18:56:20;;;;;;;4.60;3.30;;;;;;;22.97;100.00;100694.91;106632;1254;62483;-87
2023/08/24 18:59:09;;;;;;;6.90;2.90;;;;;;;22.90;100.00;100694.27;106492;1251;61119;-86
2023/08/24 19:01:58;;;;;;;6.70;2.90;;;;;;;22.91;100.00;100699.61;106693;1251;78116;-87
2023/08/24 19:04:49;;;;;;;7.20;3.50;;;;;;;22.92;99.99;100703.71;106485;1251;72607;-86
2023/08/24 19:07:38;;;;;;;6.70;3.70;;;;;;;22.83;100.00;100705.30;106550;1257;72935;-89
2023/08/24 19:10:06;;;;;;;6.80;3.70;;;;;;;22.78;100.00;100700.38;106587;1253;61125;-86
2023/08/24 19:12:52;;;;;;;5.10;2.70;;;;;;;22.73;100.00;100701.69;106435;1251;61223;-88
2023/08/24 19:15:20;;;;;;;5.80;3.20;;;;;;;22.67;100.00;100707.89;106572;1256;75102;-88
